Flight Track Log - Related Links

Times and Time Zones

All times are in EDT time to prevent confusion due to time zone crossing. See the EJA922 flight status page for this flight to view local times or setup timezone preferences in your user account.

Time Position Orientation Groundspeed Altitude Reporting Facility
EDT Latitude Longitude Course Direction KTS MPH feet Rate Location/Type
Mon 03:28:45 PM 29.7314 -95.3497 324° Northwest 227 261 6,000  Level Houston Center
Mon 03:29:03 PM 29.7364 -95.3642 292° West 228 262 6,300 2,100 Climbing Houston Center
Mon 03:30:05 PM 29.7578 -95.4472 287° West 271 312 8,800 2,064 Climbing Houston Center
Mon 03:31:08 PM 29.7842 -95.5386 288° West 296 341 10,600 1,452 Climbing Houston Center
Mon 03:32:09 PM 29.8233 -95.6725 289° West 366 421 11,800 683 Climbing Houston Center
Mon 03:33:11 PM 29.8581 -95.7956 288° West 402 463 12,000 97 Climbing Houston Center
Mon 03:34:13 PM 29.8928 -95.9219 288° West 413 475 12,000  Level Houston Center
Mon 03:35:15 PM 29.9281 -96.0533 287° West 404 465 12,000  Level Houston Center
Mon 03:36:18 PM 29.9353 -96.1811 274° West 402 463 12,000  Level Houston Center
Mon 03:37:20 PM 29.9431 -96.3144 274° West 416 479 12,000  Level Houston Center
Mon 03:38:22 PM 29.9489 -96.4450 273° West 413 475 12,000  Level Houston Center
Mon 03:39:24 PM 29.9667 -96.5992 278° West 409 471 12,000  Level Houston Center
Mon 03:40:26 PM 30.0044 -96.7228 289° West 411 473 12,000  Level Houston Center
Mon 03:41:28 PM 30.0422 -96.8469 289° West 412 474 12,000 -629 Level Houston Center
Mon 03:42:30 PM 30.0739 -96.9528 289° West 353 406 10,700 -1,161 Descending Houston Center
Mon 03:43:32 PM 30.1028 -97.0497 289° West 312 359 9,600 -823 Descending Houston Center
Mon 03:44:34 PM 30.1261 -97.1292 289° West 264 304 9,000 -290 Descending Houston Center
Mon 03:45:36 PM 30.1522 -97.2153 289° West 242 278 9,000  Level Houston Center
Mon 03:46:39 PM 30.1756 -97.2886 290° West 241 277 9,000 -480 Level Houston Center
Mon 03:47:41 PM 30.1819 -97.3661 275° West 239 275 8,000 -1,016 Descending Houston Center
Mon 03:48:43 PM 30.1844 -97.4458 272° West 243 280 6,900 -1,016 Descending Houston Center
Mon 03:49:45 PM 30.1861 -97.5206 271° West 236 272 5,900 -968 Descending Houston Center
Mon 03:50:47 PM 30.1378 -97.5578 214° Southwest 222 255 4,900 -1,210 Descending Houston Center
Mon 03:51:49 PM 30.0875 -97.5858 206° Southwest 203 234 3,400 -1,161 Descending Houston Center
Mon 03:52:51 PM 30.0969 -97.6514 279° West 174 200 2,500 -1,016 Descending Houston Center
Mon 03:53:53 PM 30.1381 -97.6567 354° North 155 178 1,300 -629 Descending Houston Center
Mon 03:54:55 PM 30.1822 -97.6594 357° North 156 180 1,200 -97 Descending Houston Center
Mon 03:56:00 PM 30.1833 -97.6667 270° West  Level FlightAware Approximate

Login

Don't have an account? Register now (free) for customized features, flight alerts, and more!